Airfield :
LOGIN :

Register | Disclaimer

   EN    FR    IT 

 










Legend :    VFR   Marginal VFR   IFR   Intensive IFR   Very Intensive IFR
Visi :
Ceiling :
>= 8 km
>= 3000ft
5 to 8 km
1000 to 3000 ft
1500m to 5 km
500 to 1000 ft
800 to 1500m
200 to 500 ft
< 800m
< 200 ft
Symbols :   Thunderstorms  Fog  Heavy snow  Heavy precipitations  Wind > 20 kt
SIGMETs :     Misc.  Thunderstorms  Icing  Turbulence  Mountain Waves  Volcanic Ashes






- Airport Elevation : 1302 ft
- IATA code : GNB


LFLS - Grenoble / St. Geoirs

CURRENT METAR :
  • 260130Z AUTO 36009KT 330V030 9999 SCT019 BKN026 OVC064 01/M02 Q1018

EXPIRED METARs :
  • 260100Z AUTO 34008KT 9999 BKN017 OVC056 01/M01 Q1018
  • 260030Z AUTO 34013KT 9999 -RA BKN016 OVC023 01/M02 Q1018
  • 260000Z AUTO 33013KT 9999 -RA BKN017 BKN035 BKN070 01/M01 Q1018
  • 252330Z AUTO 33013KT 9999 BKN017 BKN022 BKN036 01/M01 Q1017
  • 252300Z AUTO 34007KT 9999 -SNRA BKN020 OVC025 01/M01 Q1017

TAF TAF LFLS
Valid from the 25 at 15:00 until the 26 at 15:00 UTC


251400Z 2515/2615 35008KT 9999 BKN050
PROB40
TEMPO 2515/2516 4000 -SHRASN BKN025TCU
PROB40
TEMPO 2517/2524 3000 -SN BKN010
BECMG 2600/2602 CAVOK
PROB30
TEMPO 2600/2609 BKN004
ATIS : +33 4 76 65 55 89



MET'MAP, your aeronautical weather chart ! - Copyright ORBIFLY December 2007 - Disclaimer

ORBIFLY MET'MAP TEAM :

Programming & Development : Alexandra Zaïnal
Concept & original design : Baudouin d'Aumeries
Assistance for programming : Marc-Olivier Méhu
Technical & hardware support : Manuel Goepfert

Contact : metmap@orbifly.com




SOURCES & CREDITS :

   NOAA